Time;durP1;ratioP1;P1;durP2;ratioP2;P2;SDS_P1;SDS_P2;PMS_P1;PMS_P2;Temp;Humidity;BMP_temperature;BMP_pressure;BME280_temperature;BME280_humidity;BME280_pressure;Samples;Min_cycle;Max_cycle;Signal;HPM_P1;HPM_P2
2024/02/29 00:00:23;;;;;;;35.70;18.20;;;;;;;;;;5052894;28;20447;-57
2024/02/29 00:02:49;;;;;;;34.15;18.10;;;;;;;;;;5053175;28;20639;-55
2024/02/29 00:05:17;;;;;;;35.38;18.55;;;;;;;;;;5053095;28;20113;-57
2024/02/29 00:07:44;;;;;;;35.25;18.75;;;;;;;;;;5052416;28;20059;-58
2024/02/29 00:10:14;;;;;;;30.90;17.05;;;;;;;;;;5052731;28;20107;-57
2024/02/29 00:12:41;;;;;;;37.38;18.67;;;;;;;;;;5052912;28;20072;-54
2024/02/29 00:15:09;;;;;;;35.65;18.92;;;;;;;;;;5052516;28;20488;-57
2024/02/29 00:17:36;;;;;;;37.45;19.27;;;;;;;;;;5052206;28;20049;-56
2024/02/29 00:20:03;;;;;;;36.90;19.27;;;;;;;;;;5053044;28;20542;-50
2024/02/29 00:22:30;;;;;;;35.63;17.55;;;;;;;;;;5052406;28;20095;-53
2024/02/29 00:24:57;;;;;;;34.15;18.45;;;;;;;;;;5052177;28;20505;-52
2024/02/29 00:27:25;;;;;;;40.75;19.13;;;;;;;;;;5052139;28;20072;-56
2024/02/29 00:29:52;;;;;;;38.50;18.48;;;;;;;;;;5052026;28;20041;-55
2024/02/29 00:32:19;;;;;;;34.25;18.90;;;;;;;;;;5052189;28;20088;-56
2024/02/29 00:34:46;;;;;;;32.72;17.60;;;;;;;;;;5052209;28;20769;-54
2024/02/29 00:37:12;;;;;;;40.28;20.13;;;;;;;;;;5052360;28;20049;-56
2024/02/29 00:39:39;;;;;;;32.78;16.85;;;;;;;;;;5051993;28;20633;-56
2024/02/29 00:42:07;;;;;;;35.35;17.40;;;;;;;;;;5052311;28;20076;-56
2024/02/29 00:44:35;;;;;;;38.17;20.70;;;;;;;;;;5054947;28;20455;-56
2024/02/29 00:47:01;;;;;;;35.92;17.70;;;;;;;;;;5071513;28;20090;-57
2024/02/29 00:49:28;;;;;;;37.95;19.52;;;;;;;;;;5051865;28;20077;-55
2024/02/29 00:51:55;;;;;;;36.00;18.80;;;;;;;;;;5051734;28;20102;-57
2024/02/29 00:54:24;;;;;;;35.22;18.38;;;;;;;;;;5052026;28;20556;-56
2024/02/29 00:56:51;;;;;;;35.22;18.52;;;;;;;;;;5050970;28;20132;-57
2024/02/29 00:59:18;;;;;;;34.90;19.85;;;;;;;;;;5051749;28;20476;-57
2024/02/29 01:01:46;;;;;;;37.75;18.50;;;;;;;;;;5051424;28;20718;-57
2024/02/29 01:04:12;;;;;;;35.45;17.98;;;;;;;;;;5051735;28;20137;-58
2024/02/29 01:06:39;;;;;;;33.03;18.42;;;;;;;;;;5051443;28;20080;-56
2024/02/29 01:09:06;;;;;;;34.40;17.98;;;;;;;;;;5051627;28;20138;-54
2024/02/29 01:11:33;;;;;;;32.78;17.40;;;;;;;;;;5051832;28;20076;-55
2024/02/29 01:14:02;;;;;;;34.35;18.48;;;;;;;;;;5051380;28;20040;-55
2024/02/29 01:16:29;;;;;;;35.28;18.70;;;;;;;;;;5051541;28;20114;-57
2024/02/29 01:18:57;;;;;;;32.85;18.05;;;;;;;;;;5051635;28;20488;-55
2024/02/29 01:21:23;;;;;;;36.60;18.25;;;;;;;;;;5051404;28;20136;-55
2024/02/29 01:23:50;;;;;;;36.00;18.52;;;;;;;;;;5051551;28;20045;-58
2024/02/29 01:26:16;;;;;;;33.63;18.10;;;;;;;;;;5051633;28;20449;-56
2024/02/29 01:28:43;;;;;;;30.67;16.48;;;;;;;;;;5051391;28;20052;-56
2024/02/29 01:31:10;;;;;;;35.92;18.35;;;;;;;;;;5051378;28;20489;-55
2024/02/29 01:33:37;;;;;;;34.20;17.73;;;;;;;;;;5051315;28;20080;-58
2024/02/29 01:36:05;;;;;;;38.03;19.17;;;;;;;;;;5062161;28;20083;-57
2024/02/29 01:38:32;;;;;;;35.58;18.27;;;;;;;;;;5053445;28;20084;-58
2024/02/29 01:40:58;;;;;;;35.08;18.98;;;;;;;;;;5051020;28;20103;-55
2024/02/29 01:43:25;;;;;;;35.67;17.08;;;;;;;;;;5050978;28;20080;-55
2024/02/29 01:46:10;;;;;;;35.55;17.65;;;;;;;;;;5051359;28;20092;-55
2024/02/29 01:48:37;;;;;;;36.60;18.45;;;;;;;;;;5050858;28;20081;-58
2024/02/29 01:51:06;;;;;;;32.33;16.38;;;;;;;;;;5051191;28;20077;-56
2024/02/29 01:53:33;;;;;;;35.92;17.83;;;;;;;;;;5069280;28;20051;-58
2024/02/29 01:56:00;;;;;;;35.03;16.60;;;;;;;;;;5071102;28;20131;-56
2024/02/29 01:58:27;;;;;;;35.65;17.77;;;;;;;;;;5071062;28;20080;-59
2024/02/29 02:00:54;;;;;;;34.83;16.90;;;;;;;;;;5071035;28;20055;-55
2024/02/29 02:03:21;;;;;;;34.28;16.88;;;;;;;;;;5070885;28;20084;-58
2024/02/29 02:05:48;;;;;;;33.90;17.38;;;;;;;;;;5068080;28;20055;-58
2024/02/29 02:08:17;;;;;;;36.45;17.65;;;;;;;;;;5053863;28;20087;-57
2024/02/29 02:10:43;;;;;;;33.53;17.80;;;;;;;;;;5054516;28;20127;-57
2024/02/29 02:13:10;;;;;;;36.15;17.98;;;;;;;;;;5054565;28;20080;-59
2024/02/29 02:15:37;;;;;;;31.33;16.73;;;;;;;;;;5054345;28;20081;-55
2024/02/29 02:18:04;;;;;;;32.15;17.45;;;;;;;;;;5054211;28;20076;-57
2024/02/29 02:20:32;;;;;;;34.63;18.02;;;;;;;;;;5054680;28;20041;-51
2024/02/29 02:22:59;;;;;;;34.08;17.75;;;;;;;;;;5054681;28;20045;-55
2024/02/29 02:25:26;;;;;;;31.38;16.58;;;;;;;;;;5054219;28;20083;-59
2024/02/29 02:27:52;;;;;;;33.35;16.55;;;;;;;;;;5040187;28;20080;-57
2024/02/29 02:30:19;;;;;;;33.65;17.25;;;;;;;;;;5054315;28;20136;-57
2024/02/29 02:32:46;;;;;;;33.63;16.55;;;;;;;;;;5054391;28;20076;-58
2024/02/29 02:35:13;;;;;;;33.10;17.80;;;;;;;;;;5054089;28;20084;-57
2024/02/29 02:37:41;;;;;;;32.80;16.73;;;;;;;;;;5054353;28;20623;-58
2024/02/29 02:40:08;;;;;;;33.22;18.08;;;;;;;;;;5054021;28;20148;-58
2024/02/29 02:42:35;;;;;;;31.60;17.58;;;;;;;;;;5054276;28;20507;-58
2024/02/29 02:45:02;;;;;;;33.05;17.73;;;;;;;;;;5054302;28;20053;-54
2024/02/29 02:47:29;;;;;;;31.92;16.80;;;;;;;;;;5054089;28;20435;-55
2024/02/29 02:49:55;;;;;;;34.90;16.98;;;;;;;;;;5054086;28;20073;-58
2024/02/29 02:52:22;;;;;;;32.97;17.38;;;;;;;;;;5053727;28;20084;-58
2024/02/29 02:54:50;;;;;;;34.47;16.75;;;;;;;;;;5053731;28;20084;-57
2024/02/29 02:57:17;;;;;;;32.78;16.08;;;;;;;;;;5053734;28;20077;-54
2024/02/29 02:59:44;;;;;;;39.28;18.25;;;;;;;;;;5053620;28;20085;-55
2024/02/29 03:02:10;;;;;;;34.00;17.02;;;;;;;;;;5053864;28;20080;-55
2024/02/29 03:04:37;;;;;;;34.95;16.98;;;;;;;;;;5053800;28;20503;-56
2024/02/29 03:07:04;;;;;;;34.85;16.60;;;;;;;;;;5053781;28;20076;-58
2024/02/29 03:09:31;;;;;;;34.83;16.42;;;;;;;;;;5053727;28;20128;-56
2024/02/29 03:12:00;;;;;;;32.17;17.02;;;;;;;;;;5053507;28;20488;-56
2024/02/29 03:14:27;;;;;;;34.45;17.40;;;;;;;;;;5033760;28;20413;-58
2024/02/29 03:16:54;;;;;;;36.97;19.55;;;;;;;;;;5053227;28;20428;-52
2024/02/29 03:19:21;;;;;;;33.65;17.55;;;;;;;;;;5052458;28;20076;-58
2024/02/29 03:21:48;;;;;;;33.03;17.35;;;;;;;;;;5053311;28;20091;-55
2024/02/29 03:24:14;;;;;;;32.05;16.02;;;;;;;;;;5052815;28;20087;-58
2024/02/29 03:26:41;;;;;;;34.25;16.63;;;;;;;;;;5053065;28;20080;-58
2024/02/29 03:29:11;;;;;;;33.30;16.27;;;;;;;;;;5052927;28;20052;-58
2024/02/29 03:31:38;;;;;;;33.33;17.73;;;;;;;;;;5053031;28;20049;-57
2024/02/29 03:34:05;;;;;;;30.30;16.65;;;;;;;;;;5058970;28;20456;-53
2024/02/29 03:36:32;;;;;;;38.70;17.85;;;;;;;;;;5073098;28;20062;-57
2024/02/29 03:38:59;;;;;;;39.92;17.55;;;;;;;;;;5068649;28;20073;-54
2024/02/29 03:41:26;;;;;;;32.65;16.52;;;;;;;;;;5052823;28;20049;-55
2024/02/29 03:43:54;;;;;;;34.55;16.95;;;;;;;;;;5053133;28;20053;-53
2024/02/29 03:46:22;;;;;;;35.42;17.45;;;;;;;;;;5052698;28;20041;-55
2024/02/29 03:48:48;;;;;;;33.90;16.77;;;;;;;;;;5052870;28;20068;-59
2024/02/29 03:51:16;;;;;;;36.05;18.05;;;;;;;;;;5052649;28;20051;-55
2024/02/29 03:53:43;;;;;;;29.48;15.98;;;;;;;;;;5052766;28;20389;-56
2024/02/29 03:56:09;;;;;;;31.67;15.98;;;;;;;;;;5052530;28;20103;-58
2024/02/29 03:58:36;;;;;;;37.33;17.42;;;;;;;;;;5052727;28;20128;-57
2024/02/29 04:01:05;;;;;;;33.70;16.35;;;;;;;;;;5052363;28;20284;-57
2024/02/29 04:03:33;;;;;;;35.42;16.42;;;;;;;;;;5052787;28;20049;-56
2024/02/29 04:06:00;;;;;;;32.47;16.60;;;;;;;;;;5052174;28;20080;-54
2024/02/29 04:08:26;;;;;;;37.92;17.77;;;;;;;;;;5052364;28;20087;-58
2024/02/29 04:10:53;;;;;;;33.70;18.05;;;;;;;;;;5052570;28;20520;-57
2024/02/29 04:13:20;;;;;;;33.22;16.92;;;;;;;;;;5052052;28;20045;-54
2024/02/29 04:15:47;;;;;;;35.53;15.52;;;;;;;;;;5052329;28;20059;-54
2024/02/29 04:18:14;;;;;;;31.80;16.17;;;;;;;;;;5052212;28;20516;-58
2024/02/29 04:20:43;;;;;;;34.33;17.80;;;;;;;;;;5052101;28;20083;-54
2024/02/29 04:23:10;;;;;;;32.50;16.77;;;;;;;;;;5052414;28;20142;-56
2024/02/29 04:25:37;;;;;;;36.00;18.13;;;;;;;;;;5052275;28;20484;-55
2024/02/29 04:28:04;;;;;;;37.53;17.33;;;;;;;;;;5052539;28;20092;-58
2024/02/29 04:30:31;;;;;;;35.03;17.92;;;;;;;;;;5050986;28;20084;-56
2024/02/29 04:33:00;;;;;;;34.47;19.15;;;;;;;;;;5052166;28;20485;-57
2024/02/29 04:35:26;;;;;;;34.13;17.35;;;;;;;;;;5052041;28;20072;-58
2024/02/29 04:37:55;;;;;;;31.50;15.57;;;;;;;;;;5032046;28;20084;-58
2024/02/29 04:40:21;;;;;;;32.08;16.65;;;;;;;;;;5039562;28;20049;-58
2024/02/29 04:42:48;;;;;;;36.22;17.60;;;;;;;;;;5051807;28;20120;-58
2024/02/29 04:45:15;;;;;;;37.22;18.42;;;;;;;;;;5052183;28;20088;-57
2024/02/29 04:47:41;;;;;;;34.97;17.98;;;;;;;;;;5051972;28;20087;-57
2024/02/29 04:50:09;;;;;;;35.47;17.73;;;;;;;;;;5051835;28;20504;-56
2024/02/29 04:52:36;;;;;;;37.45;17.75;;;;;;;;;;5051458;28;20049;-57
2024/02/29 04:55:05;;;;;;;37.70;19.13;;;;;;;;;;5051818;28;20077;-53
2024/02/29 04:57:32;;;;;;;35.85;18.38;;;;;;;;;;5051383;28;20057;-57
2024/02/29 04:59:58;;;;;;;37.00;18.02;;;;;;;;;;5051240;28;20110;-57
2024/02/29 05:02:25;;;;;;;38.85;20.02;;;;;;;;;;5051898;28;20114;-57
2024/02/29 05:04:52;;;;;;;32.50;16.00;;;;;;;;;;5051406;28;20045;-57
2024/02/29 05:07:18;;;;;;;35.83;18.13;;;;;;;;;;5051705;28;20518;-56
2024/02/29 05:09:45;;;;;;;37.35;18.00;;;;;;;;;;5051570;28;20404;-55
2024/02/29 05:12:13;;;;;;;38.20;18.65;;;;;;;;;;5051362;28;20045;-58
2024/02/29 05:14:40;;;;;;;36.05;18.23;;;;;;;;;;5051475;28;20077;-55
2024/02/29 05:17:07;;;;;;;33.03;17.55;;;;;;;;;;5051331;28;20390;-58
2024/02/29 05:19:34;;;;;;;33.72;17.95;;;;;;;;;;5051331;28;20049;-57
2024/02/29 05:22:02;;;;;;;33.75;17.42;;;;;;;;;;5051471;28;20127;-58
2024/02/29 05:24:29;;;;;;;34.40;17.02;;;;;;;;;;5051180;28;20458;-55
2024/02/29 05:26:56;;;;;;;32.33;16.30;;;;;;;;;;5051223;28;20056;-55
2024/02/29 05:29:25;;;;;;;36.60;17.35;;;;;;;;;;5051510;28;20041;-58
2024/02/29 05:31:52;;;;;;;34.42;16.88;;;;;;;;;;5051049;28;20136;-58
2024/02/29 05:34:20;;;;;;;32.72;16.40;;;;;;;;;;5051010;28;20049;-54
2024/02/29 05:36:47;;;;;;;35.67;17.30;;;;;;;;;;5051231;28;20077;-58
2024/02/29 05:39:14;;;;;;;38.63;18.60;;;;;;;;;;5051343;28;20175;-58
2024/02/29 05:41:41;;;;;;;38.40;18.38;;;;;;;;;;5051707;28;20057;-53
2024/02/29 05:44:08;;;;;;;32.50;17.77;;;;;;;;;;5055350;28;20080;-56
2024/02/29 05:46:36;;;;;;;35.92;18.15;;;;;;;;;;5055414;28;20059;-54
2024/02/29 05:49:03;;;;;;;36.33;17.30;;;;;;;;;;5055090;28;20095;-54
2024/02/29 05:51:30;;;;;;;35.03;17.38;;;;;;;;;;5055018;28;20076;-57
2024/02/29 05:53:56;;;;;;;35.28;17.60;;;;;;;;;;5054942;28;20049;-58
2024/02/29 05:56:23;;;;;;;37.50;19.30;;;;;;;;;;5055139;28;20472;-57
2024/02/29 05:58:50;;;;;;;37.22;19.08;;;;;;;;;;5054766;28;20087;-58
2024/02/29 06:01:17;;;;;;;32.60;16.75;;;;;;;;;;5055029;28;20049;-55
2024/02/29 06:03:45;;;;;;;34.17;17.67;;;;;;;;;;5055257;28;20544;-56
2024/02/29 06:06:12;;;;;;;39.13;18.42;;;;;;;;;;5054801;28;20049;-56
2024/02/29 06:08:39;;;;;;;38.53;17.50;;;;;;;;;;5055051;28;20107;-58
2024/02/29 06:11:05;;;;;;;37.63;18.60;;;;;;;;;;5054925;28;20049;-57
2024/02/29 06:13:32;;;;;;;35.88;18.00;;;;;;;;;;5054929;28;20080;-57
2024/02/29 06:16:00;;;;;;;38.70;16.63;;;;;;;;;;5054997;28;20455;-58
2024/02/29 06:18:27;;;;;;;34.35;17.95;;;;;;;;;;5054743;28;20076;-55
2024/02/29 06:20:55;;;;;;;36.15;18.17;;;;;;;;;;5055111;28;20461;-54
2024/02/29 06:23:22;;;;;;;32.95;17.70;;;;;;;;;;5054629;28;20085;-57
2024/02/29 06:25:50;;;;;;;37.05;18.60;;;;;;;;;;5054846;28;20045;-58
2024/02/29 06:28:17;;;;;;;37.25;18.15;;;;;;;;;;5054760;28;20170;-54
2024/02/29 06:30:44;;;;;;;35.45;18.50;;;;;;;;;;5054399;28;20049;-56
2024/02/29 06:33:10;;;;;;;36.83;18.02;;;;;;;;;;5054757;28;20405;-56
2024/02/29 06:35:37;;;;;;;34.00;17.55;;;;;;;;;;5054424;28;20111;-57
2024/02/29 06:38:05;;;;;;;36.03;18.52;;;;;;;;;;5054684;28;20083;-55
2024/02/29 06:40:32;;;;;;;37.50;18.40;;;;;;;;;;5054318;28;20092;-57
2024/02/29 06:42:59;;;;;;;39.13;18.88;;;;;;;;;;5054263;28;20087;-57
2024/02/29 06:45:26;;;;;;;36.97;18.45;;;;;;;;;;5054480;28;20103;-54
2024/02/29 06:47:52;;;;;;;38.45;18.15;;;;;;;;;;5054270;28;20127;-58
2024/02/29 06:50:19;;;;;;;33.90;19.38;;;;;;;;;;5054104;28;20092;-57
2024/02/29 06:52:46;;;;;;;34.00;17.52;;;;;;;;;;5053685;28;20053;-54
2024/02/29 06:55:14;;;;;;;34.58;16.95;;;;;;;;;;5053729;28;20074;-58
2024/02/29 06:57:42;;;;;;;35.67;17.25;;;;;;;;;;5054144;28;20112;-57
2024/02/29 07:00:10;;;;;;;35.47;17.48;;;;;;;;;;5053605;28;20056;-55
2024/02/29 07:02:37;;;;;;;33.03;17.85;;;;;;;;;;5053710;28;20049;-55
2024/02/29 07:05:05;;;;;;;37.22;18.33;;;;;;;;;;5054214;28;20541;-55
2024/02/29 07:07:31;;;;;;;42.92;18.55;;;;;;;;;;5053777;28;20128;-57
2024/02/29 07:09:58;;;;;;;39.33;19.55;;;;;;;;;;5053871;28;20045;-56
2024/02/29 07:12:26;;;;;;;37.78;18.73;;;;;;;;;;5053812;28;20087;-55
2024/02/29 07:14:53;;;;;;;47.53;20.10;;;;;;;;;;5054109;28;20053;-58
2024/02/29 07:17:20;;;;;;;35.05;18.77;;;;;;;;;;5053738;28;20546;-58
2024/02/29 07:19:46;;;;;;;38.38;18.95;;;;;;;;;;5053372;28;20080;-58
2024/02/29 07:22:13;;;;;;;33.92;17.52;;;;;;;;;;5053735;28;20097;-54
2024/02/29 07:24:40;;;;;;;36.78;17.58;;;;;;;;;;5053859;28;20076;-53
2024/02/29 07:27:07;;;;;;;37.03;18.27;;;;;;;;;;5055242;28;20131;-55
2024/02/29 07:29:35;;;;;;;37.58;18.40;;;;;;;;;;5070526;28;20075;-55
2024/02/29 07:32:02;;;;;;;38.83;20.88;;;;;;;;;;5073343;28;20080;-57
2024/02/29 07:34:28;;;;;;;41.72;18.02;;;;;;;;;;5073424;28;20084;-56
2024/02/29 07:36:55;;;;;;;43.00;20.67;;;;;;;;;;5069397;28;20041;-58
2024/02/29 07:39:22;;;;;;;38.13;18.92;;;;;;;;;;5053626;28;20076;-57
2024/02/29 07:41:48;;;;;;;40.83;19.50;;;;;;;;;;5057051;28;20084;-54
2024/02/29 07:44:16;;;;;;;39.33;19.17;;;;;;;;;;5052956;28;20507;-58
2024/02/29 07:46:44;;;;;;;42.28;20.23;;;;;;;;;;5053117;28;20091;-58
2024/02/29 07:49:11;;;;;;;42.67;19.08;;;;;;;;;;5053559;28;20120;-54
2024/02/29 07:51:38;;;;;;;41.67;19.00;;;;;;;;;;5052870;28;20073;-58
2024/02/29 07:54:05;;;;;;;35.85;18.60;;;;;;;;;;5053247;28;20504;-58
2024/02/29 07:56:31;;;;;;;41.75;20.02;;;;;;;;;;5053282;28;20085;-55
2024/02/29 07:58:58;;;;;;;44.40;19.25;;;;;;;;;;5052985;28;20044;-55
2024/02/29 08:01:25;;;;;;;38.40;19.77;;;;;;;;;;5052810;28;20144;-58
2024/02/29 08:03:53;;;;;;;42.63;19.45;;;;;;;;;;5052740;28;20084;-54
2024/02/29 08:06:20;;;;;;;41.95;20.92;;;;;;;;;;5052703;28;20077;-54
2024/02/29 08:08:47;;;;;;;42.97;20.90;;;;;;;;;;5052654;28;20135;-57
2024/02/29 08:11:14;;;;;;;39.58;19.85;;;;;;;;;;5052698;28;20045;-58
2024/02/29 08:13:42;;;;;;;39.13;19.33;;;;;;;;;;5052684;28;20052;-57
2024/02/29 08:16:08;;;;;;;40.00;21.30;;;;;;;;;;5052652;28;20057;-53
2024/02/29 08:18:35;;;;;;;44.72;21.27;;;;;;;;;;5052639;28;20500;-58
2024/02/29 08:21:04;;;;;;;43.65;19.83;;;;;;;;;;5050779;28;20085;-55
2024/02/29 08:23:30;;;;;;;40.50;19.75;;;;;;;;;;5051040;28;20592;-56
2024/02/29 08:25:57;;;;;;;40.90;20.75;;;;;;;;;;5050692;28;20652;-55
2024/02/29 08:28:24;;;;;;;40.47;20.55;;;;;;;;;;5050584;28;20091;-57
2024/02/29 08:30:51;;;;;;;45.15;19.73;;;;;;;;;;5049797;28;20204;-55
2024/02/29 08:33:18;;;;;;;43.67;20.15;;;;;;;;;;5069290;28;20511;-57
2024/02/29 08:35:46;;;;;;;41.45;19.90;;;;;;;;;;5070356;28;20136;-56
2024/02/29 08:38:14;;;;;;;38.88;17.73;;;;;;;;;;5054026;28;20408;-58
2024/02/29 08:40:41;;;;;;;41.70;19.75;;;;;;;;;;5050186;28;20045;-56
2024/02/29 08:43:08;;;;;;;40.30;18.77;;;;;;;;;;5050507;28;20049;-55
2024/02/29 08:45:34;;;;;;;39.80;19.73;;;;;;;;;;5050001;28;20053;-58
2024/02/29 08:48:01;;;;;;;40.50;19.92;;;;;;;;;;5049785;28;20080;-57
2024/02/29 08:50:28;;;;;;;37.33;19.45;;;;;;;;;;5058913;28;20086;-54
2024/02/29 08:52:55;;;;;;;39.67;19.33;;;;;;;;;;5070388;28;20063;-58
2024/02/29 08:55:23;;;;;;;40.28;19.55;;;;;;;;;;5069056;28;20076;-58
2024/02/29 08:57:49;;;;;;;39.88;18.85;;;;;;;;;;5069784;28;20399;-55
2024/02/29 09:00:17;;;;;;;40.22;20.48;;;;;;;;;;5054917;28;20061;-57
2024/02/29 09:02:44;;;;;;;35.85;18.00;;;;;;;;;;5049711;28;20076;-55
2024/02/29 09:05:11;;;;;;;40.88;19.48;;;;;;;;;;5049611;28;20071;-54
2024/02/29 09:07:38;;;;;;;39.10;19.58;;;;;;;;;;5049787;28;20461;-56
2024/02/29 09:10:06;;;;;;;36.25;18.52;;;;;;;;;;5049449;28;20087;-57
2024/02/29 09:12:34;;;;;;;35.67;18.00;;;;;;;;;;5049716;28;20049;-56
2024/02/29 09:15:02;;;;;;;39.67;18.40;;;;;;;;;;5049902;28;20064;-55
2024/02/29 09:17:29;;;;;;;37.03;18.10;;;;;;;;;;5048731;28;20087;-54
2024/02/29 09:19:56;;;;;;;37.22;19.45;;;;;;;;;;5049514;28;20512;-55
2024/02/29 09:22:23;;;;;;;38.30;19.10;;;;;;;;;;5050135;28;20102;-58
2024/02/29 09:24:50;;;;;;;39.03;19.75;;;;;;;;;;5030071;28;20543;-52
2024/02/29 09:27:16;;;;;;;38.58;19.40;;;;;;;;;;5029873;28;20053;-55
2024/02/29 09:29:44;;;;;;;36.88;17.67;;;;;;;;;;5039517;28;20155;-56
2024/02/29 09:32:13;;;;;;;35.08;17.95;;;;;;;;;;5068567;28;20087;-58
2024/02/29 09:34:41;;;;;;;35.47;17.88;;;;;;;;;;5069479;28;20071;-57
2024/02/29 09:37:08;;;;;;;36.20;17.23;;;;;;;;;;5053335;28;20076;-59
2024/02/29 09:39:34;;;;;;;34.55;18.67;;;;;;;;;;5049691;28;20562;-54
2024/02/29 09:42:01;;;;;;;37.13;17.58;;;;;;;;;;5063410;28;20076;-57
2024/02/29 09:44:28;;;;;;;34.13;16.88;;;;;;;;;;5069778;28;20111;-53
2024/02/29 09:46:56;;;;;;;29.60;16.00;;;;;;;;;;5067232;28;20090;-61
2024/02/29 09:49:23;;;;;;;30.23;15.95;;;;;;;;;;5049491;28;20479;-60
2024/02/29 09:51:50;;;;;;;30.05;15.63;;;;;;;;;;5049962;28;20080;-61
2024/02/29 09:54:18;;;;;;;29.17;14.80;;;;;;;;;;5048871;28;20076;-57
2024/02/29 09:56:45;;;;;;;29.35;15.52;;;;;;;;;;5053026;28;20080;-61
2024/02/29 09:59:15;;;;;;;33.10;15.77;;;;;;;;;;5053862;28;20099;-61
2024/02/29 10:01:44;;;;;;;27.90;15.30;;;;;;;;;;5053459;28;20133;-58
2024/02/29 10:04:12;;;;;;;26.90;13.98;;;;;;;;;;5050825;28;20072;-58
2024/02/29 10:06:39;;;;;;;26.75;14.02;;;;;;;;;;5059224;28;20044;-60
2024/02/29 10:09:06;;;;;;;24.73;13.30;;;;;;;;;;5050972;28;20536;-62
2024/02/29 10:11:32;;;;;;;29.88;15.10;;;;;;;;;;5053768;28;20045;-60
2024/02/29 10:14:01;;;;;;;26.45;14.55;;;;;;;;;;5058145;28;20044;-64
2024/02/29 10:16:28;;;;;;;24.20;13.45;;;;;;;;;;5052180;28;20049;-63
2024/02/29 10:18:55;;;;;;;29.83;15.48;;;;;;;;;;5049448;28;20127;-61
2024/02/29 10:21:24;;;;;;;31.02;15.25;;;;;;;;;;5047368;28;20081;-64
2024/02/29 10:23:50;;;;;;;26.92;15.18;;;;;;;;;;5047865;28;20076;-60
2024/02/29 10:26:19;;;;;;;26.42;13.80;;;;;;;;;;5048430;28;20087;-62
2024/02/29 10:28:46;;;;;;;26.00;13.73;;;;;;;;;;5050673;28;20124;-58
2024/02/29 10:31:16;;;;;;;33.50;15.63;;;;;;;;;;5050136;28;20114;-60
2024/02/29 10:33:48;;;;;;;27.85;14.80;;;;;;;;;;5052257;28;20369;-60
2024/02/29 10:36:15;;;;;;;27.13;14.95;;;;;;;;;;5052005;28;20077;-57
2024/02/29 10:38:43;;;;;;;26.13;13.75;;;;;;;;;;5051873;28;20124;-59
2024/02/29 10:41:11;;;;;;;32.28;13.63;;;;;;;;;;5051066;28;20052;-59
2024/02/29 10:43:38;;;;;;;27.55;14.48;;;;;;;;;;5060205;28;20155;-58
2024/02/29 10:46:07;;;;;;;24.58;12.60;;;;;;;;;;5052120;28;20504;-58
2024/02/29 10:48:44;;;;;;;27.48;12.95;;;;;;;;;;5051911;28;20132;-59
2024/02/29 10:51:19;;;;;;;22.60;13.23;;;;;;;;;;5044162;28;20080;-60
2024/02/29 10:54:07;;;;;;;22.52;12.48;;;;;;;;;;5052204;28;20091;-60
2024/02/29 10:56:36;;;;;;;24.13;13.32;;;;;;;;;;5064922;28;20048;-59
2024/02/29 10:59:05;;;;;;;26.25;13.25;;;;;;;;;;5056206;28;20044;-60
2024/02/29 11:01:32;;;;;;;25.13;13.82;;;;;;;;;;5054701;28;20045;-59
2024/02/29 11:03:59;;;;;;;23.48;12.85;;;;;;;;;;5055708;28;20072;-60
2024/02/29 11:06:27;;;;;;;22.55;12.48;;;;;;;;;;5066757;28;20088;-59
2024/02/29 11:08:55;;;;;;;24.63;14.25;;;;;;;;;;5051894;28;20151;-60
2024/02/29 11:11:25;;;;;;;23.67;12.88;;;;;;;;;;5051555;28;20099;-59
2024/02/29 11:14:03;;;;;;;26.33;13.40;;;;;;;;;;5051358;28;20190;-60
2024/02/29 11:16:31;;;;;;;26.58;14.48;;;;;;;;;;5058337;28;20128;-59
2024/02/29 11:19:02;;;;;;;26.55;12.80;;;;;;;;;;5053166;28;20132;-59
2024/02/29 11:21:29;;;;;;;30.33;13.95;;;;;;;;;;5051741;28;20060;-60
2024/02/29 11:24:01;;;;;;;26.40;13.80;;;;;;;;;;5051738;28;20045;-60
2024/02/29 11:26:31;;;;;;;28.45;15.02;;;;;;;;;;5055324;28;20048;-60
2024/02/29 11:28:59;;;;;;;23.50;12.75;;;;;;;;;;5051646;28;20139;-57
2024/02/29 11:31:26;;;;;;;26.00;12.80;;;;;;;;;;5051289;28;20049;-61
2024/02/29 11:33:53;;;;;;;26.17;13.75;;;;;;;;;;5053547;28;20347;-57
2024/02/29 11:36:20;;;;;;;27.60;13.02;;;;;;;;;;5056463;28;20092;-58
2024/02/29 11:38:47;;;;;;;25.00;14.10;;;;;;;;;;5054503;28;20098;-59
2024/02/29 11:41:16;;;;;;;24.27;13.25;;;;;;;;;;5050731;28;20073;-57
2024/02/29 11:43:45;;;;;;;24.08;13.15;;;;;;;;;;5050996;28;20131;-59
2024/02/29 11:46:13;;;;;;;22.48;12.15;;;;;;;;;;5051370;28;20742;-59
2024/02/29 11:48:40;;;;;;;21.95;12.90;;;;;;;;;;5054722;28;20041;-58
2024/02/29 11:51:08;;;;;;;22.05;11.93;;;;;;;;;;5056104;28;20117;-58
2024/02/29 11:53:35;;;;;;;21.77;12.13;;;;;;;;;;5054601;28;20040;-58
2024/02/29 11:56:02;;;;;;;24.55;11.60;;;;;;;;;;5049374;28;20048;-59
2024/02/29 11:58:29;;;;;;;22.45;10.60;;;;;;;;;;5050882;28;20049;-59
2024/02/29 12:00:59;;;;;;;24.92;12.10;;;;;;;;;;5034669;28;20523;-60
2024/02/29 12:03:26;;;;;;;26.70;15.70;;;;;;;;;;5056000;28;20059;-60
2024/02/29 12:05:53;;;;;;;23.38;12.82;;;;;;;;;;5052148;28;20052;-59
2024/02/29 12:08:20;;;;;;;23.48;12.55;;;;;;;;;;5053100;28;20528;-60
2024/02/29 12:10:47;;;;;;;29.63;14.30;;;;;;;;;;5054816;28;20602;-59
2024/02/29 12:13:15;;;;;;;24.73;12.95;;;;;;;;;;5050062;28;20056;-60
2024/02/29 12:15:41;;;;;;;24.45;13.00;;;;;;;;;;5050121;28;20098;-60
2024/02/29 12:18:10;;;;;;;24.30;13.73;;;;;;;;;;5050193;28;20076;-59
2024/02/29 12:20:37;;;;;;;28.50;13.27;;;;;;;;;;5050166;28;20064;-58
2024/02/29 12:23:05;;;;;;;30.30;14.15;;;;;;;;;;5050294;28;20055;-60
2024/02/29 12:25:32;;;;;;;25.17;13.75;;;;;;;;;;5050109;28;20056;-60
2024/02/29 12:28:00;;;;;;;25.08;12.20;;;;;;;;;;5050385;28;20055;-59
2024/02/29 12:30:26;;;;;;;25.23;13.20;;;;;;;;;;5050338;28;20051;-58
2024/02/29 12:32:53;;;;;;;23.33;12.38;;;;;;;;;;5050348;28;20076;-59
2024/02/29 12:35:27;;;;;;;27.08;14.00;;;;;;;;;;5049837;28;20087;-60
2024/02/29 12:37:53;;;;;;;28.38;13.88;;;;;;;;;;5051422;28;20500;-59
2024/02/29 12:40:20;;;;;;;28.90;15.43;;;;;;;;;;5053720;28;20049;-66
2024/02/29 12:42:47;;;;;;;21.83;12.27;;;;;;;;;;5051114;28;20555;-58
2024/02/29 12:45:20;;;;;;;25.85;12.32;;;;;;;;;;5056586;28;20490;-65
2024/02/29 12:47:46;;;;;;;28.25;14.43;;;;;;;;;;5049139;28;20048;-63
2024/02/29 12:50:13;;;;;;;34.33;15.57;;;;;;;;;;5055025;28;20412;-64
2024/02/29 12:52:41;;;;;;;28.25;14.50;;;;;;;;;;5058261;28;20087;-58
2024/02/29 12:55:09;;;;;;;23.35;13.35;;;;;;;;;;5052395;28;20048;-56
2024/02/29 12:57:35;;;;;;;26.90;14.80;;;;;;;;;;5049845;28;20076;-60
2024/02/29 13:00:02;;;;;;;25.95;13.70;;;;;;;;;;5049755;28;20077;-56
2024/02/29 13:02:31;;;;;;;26.90;13.93;;;;;;;;;;5050000;28;20052;-59
2024/02/29 13:04:58;;;;;;;25.13;13.15;;;;;;;;;;5050129;28;20072;-59
2024/02/29 13:07:24;;;;;;;26.02;12.35;;;;;;;;;;5049973;28;20069;-57
2024/02/29 13:09:52;;;;;;;25.75;13.10;;;;;;;;;;5048449;28;20087;-59
2024/02/29 13:12:19;;;;;;;25.63;12.02;;;;;;;;;;5045090;28;20131;-59
2024/02/29 13:14:46;;;;;;;23.58;13.73;;;;;;;;;;5049033;28;20084;-58
2024/02/29 13:17:12;;;;;;;19.88;11.00;;;;;;;;;;5057921;28;20064;-58
2024/02/29 13:19:40;;;;;;;22.17;11.90;;;;;;;;;;5057292;28;20128;-59
2024/02/29 13:22:07;;;;;;;23.92;12.35;;;;;;;;;;5049870;28;20558;-59
2024/02/29 13:24:33;;;;;;;21.88;12.65;;;;;;;;;;5049260;28;20416;-60
2024/02/29 13:27:01;;;;;;;24.52;13.18;;;;;;;;;;5049444;28;20084;-59
2024/02/29 13:29:29;;;;;;;24.92;12.70;;;;;;;;;;5050049;28;20045;-59
2024/02/29 13:31:56;;;;;;;26.40;14.68;;;;;;;;;;5041948;28;20049;-54
2024/02/29 13:34:23;;;;;;;23.90;13.35;;;;;;;;;;5048949;28;20086;-57
2024/02/29 13:36:50;;;;;;;25.70;13.48;;;;;;;;;;5049725;28;21465;-55
2024/02/29 13:39:17;;;;;;;25.90;13.60;;;;;;;;;;5049371;28;20073;-57
2024/02/29 13:41:45;;;;;;;29.40;14.60;;;;;;;;;;5052186;28;20049;-57
2024/02/29 13:44:13;;;;;;;24.02;14.02;;;;;;;;;;5048885;28;20088;-52
2024/02/29 13:46:40;;;;;;;25.33;14.02;;;;;;;;;;5052840;28;20049;-58
2024/02/29 13:49:08;;;;;;;26.05;14.50;;;;;;;;;;5055446;28;20467;-57
2024/02/29 13:51:34;;;;;;;26.45;14.75;;;;;;;;;;5049185;28;20053;-59
2024/02/29 13:54:01;;;;;;;25.10;14.30;;;;;;;;;;5048667;28;20132;-55
2024/02/29 13:56:28;;;;;;;31.90;15.65;;;;;;;;;;5048824;28;20045;-55
2024/02/29 13:58:55;;;;;;;29.27;16.58;;;;;;;;;;5049864;28;20079;-57
2024/02/29 14:01:23;;;;;;;26.85;14.75;;;;;;;;;;5049771;28;20113;-57
2024/02/29 14:03:50;;;;;;;28.13;14.75;;;;;;;;;;5054815;28;21410;-54
2024/02/29 14:06:18;;;;;;;25.63;14.68;;;;;;;;;;5053310;28;20049;-51
2024/02/29 14:08:45;;;;;;;28.35;14.68;;;;;;;;;;5053082;28;20113;-58
2024/02/29 14:11:12;;;;;;;27.75;14.05;;;;;;;;;;5057131;28;20751;-55
2024/02/29 14:13:39;;;;;;;32.80;16.38;;;;;;;;;;5052581;28;20049;-56
2024/02/29 14:16:06;;;;;;;29.20;16.00;;;;;;;;;;5052612;28;20562;-57